createdAt,value
2017-09-07T00:00:17.115Z,24.46
2017-09-07T00:00:57.577Z,24.41
2017-09-07T00:01:38.030Z,24.47
2017-09-07T00:02:18.496Z,24.46
2017-09-07T00:02:58.956Z,24.37
2017-09-07T00:03:39.410Z,24.4
2017-09-07T00:04:19.889Z,24.41
2017-09-07T00:05:00.347Z,24.43
2017-09-07T00:05:40.794Z,24.46
2017-09-07T00:06:21.235Z,24.4
2017-09-07T00:07:01.696Z,24.46
2017-09-07T00:07:42.132Z,24.43
2017-09-07T00:08:22.585Z,24.44
2017-09-07T00:09:03.026Z,24.38
2017-09-07T00:09:43.474Z,24.43
2017-09-07T00:10:23.931Z,24.37
2017-09-07T00:11:04.381Z,24.4
2017-09-07T00:11:44.835Z,24.37
2017-09-07T00:12:25.295Z,24.38
2017-09-07T00:13:05.744Z,24.41
2017-09-07T00:13:46.206Z,24.32
2017-09-07T00:14:26.740Z,24.34
2017-09-07T00:15:07.192Z,24.41
2017-09-07T00:15:47.653Z,24.37
2017-09-07T00:16:28.097Z,24.31
2017-09-07T00:17:08.546Z,24.47
2017-09-07T00:17:49.010Z,24.37
2017-09-07T00:18:29.461Z,24.4
2017-09-07T00:19:09.919Z,24.43
2017-09-07T00:19:50.373Z,24.4
2017-09-07T00:20:30.838Z,24.41
2017-09-07T00:21:11.288Z,24.34
2017-09-07T00:21:51.735Z,24.34
2017-09-07T00:22:32.194Z,24.31
2017-09-07T00:23:12.645Z,24.38
2017-09-07T00:23:53.095Z,24.37
2017-09-07T00:24:33.558Z,24.31
2017-09-07T00:25:14.012Z,24.32
2017-09-07T00:25:54.483Z,24.32
2017-09-07T00:26:34.941Z,24.28
2017-09-07T00:27:15.394Z,24.34
2017-09-07T00:27:55.851Z,24.37
2017-09-07T00:28:36.364Z,24.31
2017-09-07T00:29:16.816Z,24.31
2017-09-07T00:29:57.267Z,24.36
2017-09-07T00:30:37.722Z,24.38
2017-09-07T00:31:18.208Z,24.29
2017-09-07T00:31:58.635Z,24.31
2017-09-07T00:32:39.089Z,24.32
2017-09-07T00:33:19.545Z,24.37
2017-09-07T00:33:59.993Z,24.34
2017-09-07T00:34:40.442Z,24.38
2017-09-07T00:35:20.897Z,24.31
2017-09-07T00:36:01.354Z,24.36
2017-09-07T00:36:41.812Z,24.32
2017-09-07T00:37:22.263Z,24.28
2017-09-07T00:38:02.716Z,24.32
2017-09-07T00:38:43.171Z,24.26
2017-09-07T00:39:23.625Z,24.29
2017-09-07T00:40:04.084Z,24.26
2017-09-07T00:40:44.538Z,24.29
2017-09-07T00:41:24.989Z,24.36
2017-09-07T00:42:05.438Z,24.31
2017-09-07T00:42:45.897Z,24.22
2017-09-07T00:43:26.499Z,24.22
2017-09-07T00:44:06.949Z,24.21
2017-09-07T00:44:47.399Z,24.28
2017-09-07T00:45:27.907Z,24.28
2017-09-07T00:46:08.364Z,24.18
2017-09-07T00:46:48.811Z,24.19
2017-09-07T00:47:29.265Z,24.25
2017-09-07T00:48:09.708Z,24.28
2017-09-07T00:48:50.167Z,24.26
2017-09-07T00:49:30.613Z,24.22
2017-09-07T00:50:11.055Z,24.29
2017-09-07T00:50:51.505Z,24.18
2017-09-07T00:51:31.963Z,24.16
2017-09-07T00:52:12.419Z,24.22
2017-09-07T00:52:52.874Z,24.28
2017-09-07T00:53:33.329Z,24.28
2017-09-07T00:54:13.811Z,24.24
2017-09-07T00:54:54.240Z,24.22
2017-09-07T00:55:34.672Z,24.21
2017-09-07T00:56:15.123Z,24.19
2017-09-07T00:56:55.570Z,24.25
2017-09-07T00:57:36.024Z,24.24
2017-09-07T00:58:16.465Z,24.31
2017-09-07T00:58:56.919Z,24.25
2017-09-07T00:59:37.365Z,24.29
2017-09-07T01:00:17.814Z,24.31
2017-09-07T01:00:58.275Z,24.29
2017-09-07T01:01:38.735Z,24.29
2017-09-07T01:02:19.202Z,24.28
2017-09-07T01:02:59.649Z,24.25
2017-09-07T01:03:40.101Z,24.31
2017-09-07T01:04:20.562Z,24.21
2017-09-07T01:05:01.019Z,24.21
2017-09-07T01:05:41.481Z,24.25
2017-09-07T01:06:21.934Z,24.26
2017-09-07T01:07:02.387Z,24.22
2017-09-07T01:07:42.846Z,24.22
2017-09-07T01:08:23.302Z,24.16
2017-09-07T01:09:03.756Z,24.14
2017-09-07T01:09:44.209Z,24.29
2017-09-07T01:10:24.658Z,24.26
2017-09-07T01:11:05.114Z,24.26
2017-09-07T01:11:45.564Z,24.16
2017-09-07T01:12:26.024Z,24.22
2017-09-07T01:13:06.484Z,24.26
2017-09-07T01:13:46.940Z,24.21
2017-09-07T01:14:27.388Z,24.24
2017-09-07T01:15:07.847Z,24.16
2017-09-07T01:15:48.308Z,24.32
2017-09-07T01:16:28.799Z,24.14
2017-09-07T01:17:09.256Z,24.25
2017-09-07T01:17:49.713Z,24.28
2017-09-07T01:18:30.165Z,24.25
2017-09-07T01:19:10.636Z,24.26
2017-09-07T01:19:51.085Z,24.29
2017-09-07T01:20:31.533Z,24.26
2017-09-07T01:21:11.982Z,24.29
2017-09-07T01:21:52.433Z,24.24
2017-09-07T01:22:32.885Z,24.28
2017-09-07T01:23:13.333Z,24.25
2017-09-07T01:23:53.784Z,24.22
2017-09-07T01:24:34.229Z,24.28
2017-09-07T01:25:14.692Z,24.28
2017-09-07T01:25:55.143Z,24.25
2017-09-07T01:26:35.604Z,24.19
2017-09-07T01:27:16.054Z,24.18
2017-09-07T01:27:56.502Z,24.21
2017-09-07T01:28:36.953Z,24.25
2017-09-07T01:29:17.406Z,24.19
2017-09-07T01:29:57.855Z,24.19
2017-09-07T01:30:38.306Z,24.16
2017-09-07T01:31:18.752Z,24.19
2017-09-07T01:31:59.208Z,24.18
2017-09-07T01:32:39.658Z,24.11
2017-09-07T01:33:20.205Z,24.21
2017-09-07T01:34:00.666Z,24.18
2017-09-07T01:34:41.123Z,24.19
2017-09-07T01:35:21.577Z,24.22
2017-09-07T01:36:02.195Z,24.19
2017-09-07T01:37:39.630Z,24.29
2017-09-07T01:38:20.086Z,24.26
2017-09-07T01:39:00.543Z,24.16
2017-09-07T01:39:40.986Z,24.22
2017-09-07T01:40:21.445Z,24.13
2017-09-07T01:41:01.891Z,24.19
2017-09-07T01:41:42.343Z,24.19
2017-09-07T01:42:22.794Z,24.24
2017-09-07T01:43:03.259Z,24.19
2017-09-07T01:43:43.707Z,24.19
2017-09-07T01:44:24.144Z,24.18
2017-09-07T01:45:04.601Z,24.14
2017-09-07T01:45:45.050Z,24.18
2017-09-07T01:46:25.489Z,24.19
2017-09-07T01:47:05.951Z,24.16
2017-09-07T01:47:46.399Z,24.13
2017-09-07T01:48:26.868Z,24.16
2017-09-07T01:49:07.328Z,24.16
2017-09-07T01:49:47.787Z,24.14
2017-09-07T01:50:28.246Z,24.18
2017-09-07T01:51:08.700Z,24.14
2017-09-07T01:51:49.158Z,24.16
2017-09-07T01:52:29.609Z,24.13
2017-09-07T01:53:10.063Z,24.18
2017-09-07T01:53:50.516Z,24.19
2017-09-07T01:54:30.974Z,24.21
2017-09-07T01:55:11.420Z,24.11
2017-09-07T01:55:51.881Z,24.09
2017-09-07T01:56:32.337Z,24.13
2017-09-07T01:57:12.796Z,24.13
2017-09-07T01:57:53.253Z,24.16
2017-09-07T01:58:33.711Z,24.13
2017-09-07T01:59:14.166Z,24.16
2017-09-07T01:59:54.612Z,24.13
2017-09-07T02:00:35.065Z,24.14
2017-09-07T02:01:15.528Z,24.13
2017-09-07T02:01:55.982Z,24.14
2017-09-07T02:02:36.476Z,24.14
2017-09-07T02:03:16.942Z,24.18
2017-09-07T02:03:57.400Z,24.13
2017-09-07T02:04:37.855Z,24.16
2017-09-07T02:05:18.322Z,24.14
2017-09-07T02:05:58.774Z,24.13
2017-09-07T02:06:39.224Z,24.1
2017-09-07T02:07:19.694Z,24.16
2017-09-07T02:08:00.152Z,24.07
2017-09-07T02:08:40.606Z,24.16
2017-09-07T02:09:21.057Z,24.14
2017-09-07T02:10:01.511Z,24.16
2017-09-07T02:10:41.970Z,24.11
2017-09-07T02:11:22.422Z,24.14
2017-09-07T02:12:02.870Z,24.16
2017-09-07T02:12:43.326Z,24.16
2017-09-07T02:13:23.777Z,24.1
2017-09-07T02:14:04.227Z,24.1
2017-09-07T02:14:44.682Z,24.1
2017-09-07T02:15:25.144Z,24.16
2017-09-07T02:16:05.601Z,24.1
2017-09-07T02:16:46.056Z,24.07
2017-09-07T02:17:26.515Z,24.13
2017-09-07T02:18:06.974Z,24.1
2017-09-07T02:18:47.427Z,24.1
2017-09-07T02:19:27.885Z,24.06
2017-09-07T02:20:08.348Z,24.03
2017-09-07T02:20:48.805Z,24.11
2017-09-07T02:21:29.260Z,24.1
2017-09-07T02:22:09.711Z,24.1
2017-09-07T02:22:50.183Z,24.13
2017-09-07T02:23:30.634Z,24.07
2017-09-07T02:24:11.098Z,24.11
2017-09-07T02:24:51.546Z,24.06
2017-09-07T02:25:32.012Z,24.09
2017-09-07T02:26:12.464Z,24.03
2017-09-07T02:26:52.920Z,24.09
2017-09-07T02:27:33.380Z,24.1
2017-09-07T02:28:13.839Z,24.11
2017-09-07T02:28:54.286Z,24.01
2017-09-07T02:29:34.742Z,24
2017-09-07T02:30:15.200Z,24.04
2017-09-07T02:30:55.658Z,24.07
2017-09-07T02:31:36.111Z,24.1
2017-09-07T02:32:16.564Z,24.07
2017-09-07T02:32:57.014Z,24.11
2017-09-07T02:33:37.470Z,24.04
2017-09-07T02:34:17.918Z,24.04
2017-09-07T02:34:58.373Z,24.04
2017-09-07T02:35:38.822Z,24.03
2017-09-07T02:36:19.289Z,24.07
2017-09-07T02:36:59.735Z,24.07
2017-09-07T02:37:40.191Z,24.07
2017-09-07T02:38:20.648Z,24.04
2017-09-07T02:39:01.100Z,24.04
2017-09-07T02:39:41.557Z,24.11
2017-09-07T02:40:22.012Z,24.03
2017-09-07T02:41:02.472Z,24.07
2017-09-07T02:41:42.919Z,23.92
2017-09-07T02:42:23.376Z,24.06
2017-09-07T02:43:03.835Z,24.03
2017-09-07T02:43:44.276Z,24.09
2017-09-07T02:44:24.733Z,24.01
2017-09-07T02:45:05.187Z,24.06
2017-09-07T02:45:45.637Z,24.01
2017-09-07T02:47:58.497Z,24.04
2017-09-07T02:48:38.948Z,24.06
2017-09-07T02:49:19.395Z,24.09
2017-09-07T02:49:59.850Z,24.09
2017-09-07T02:50:40.308Z,24.1
2017-09-07T02:51:20.747Z,23.92
2017-09-07T02:52:01.202Z,23.99
2017-09-07T02:52:41.655Z,24.1
2017-09-07T02:53:22.099Z,24.06
2017-09-07T02:54:02.549Z,24.04
2017-09-07T02:54:43.002Z,24.09
2017-09-07T02:55:23.451Z,24.07
2017-09-07T02:56:04.001Z,24.04
2017-09-07T02:56:44.436Z,24.09
2017-09-07T02:57:24.926Z,24.03
2017-09-07T02:58:05.371Z,24.06
2017-09-07T02:58:45.821Z,23.99
2017-09-07T02:59:26.269Z,24.01
2017-09-07T03:00:06.768Z,23.92
2017-09-07T03:00:47.214Z,24
2017-09-07T03:01:27.667Z,23.99
2017-09-07T03:02:08.118Z,23.99
2017-09-07T03:02:48.584Z,24.01
2017-09-07T03:03:29.042Z,23.99
2017-09-07T03:04:09.493Z,23.92
2017-09-07T03:04:49.947Z,23.95
2017-09-07T03:05:30.399Z,23.94
2017-09-07T03:06:10.875Z,24.01
2017-09-07T03:06:51.313Z,23.95
2017-09-07T03:07:31.766Z,23.92
2017-09-07T03:08:12.219Z,24.01
2017-09-07T03:08:52.673Z,24.01
2017-09-07T03:09:33.125Z,23.92
2017-09-07T03:10:13.583Z,23.94
2017-09-07T03:10:54.034Z,23.99
2017-09-07T03:11:34.492Z,23.95
2017-09-07T03:12:14.942Z,23.94
2017-09-07T03:12:55.393Z,23.96
2017-09-07T03:13:35.858Z,24
2017-09-07T03:14:16.311Z,23.91
2017-09-07T03:14:56.758Z,23.94
2017-09-07T03:15:37.203Z,23.91
2017-09-07T03:16:17.660Z,23.96
2017-09-07T03:16:58.109Z,23.92
2017-09-07T03:17:38.568Z,23.96
2017-09-07T03:18:19.028Z,23.89
2017-09-07T03:18:59.480Z,23.92
2017-09-07T03:19:39.934Z,23.94
2017-09-07T03:20:20.384Z,24.01
2017-09-07T03:21:00.841Z,23.94
2017-09-07T03:21:41.298Z,23.92
2017-09-07T03:22:21.797Z,23.94
2017-09-07T03:23:02.247Z,23.96
2017-09-07T03:23:42.700Z,23.92
2017-09-07T03:24:23.154Z,23.96
2017-09-07T03:25:03.608Z,23.94
2017-09-07T03:25:44.063Z,23.95
2017-09-07T03:26:24.525Z,23.92
2017-09-07T03:27:04.973Z,23.91
2017-09-07T03:27:45.429Z,24
2017-09-07T03:28:25.880Z,23.92
2017-09-07T03:29:06.337Z,23.92
2017-09-07T03:29:46.799Z,23.92
2017-09-07T03:30:27.253Z,23.92
2017-09-07T03:31:07.710Z,23.89
2017-09-07T03:31:48.157Z,23.99
2017-09-07T03:32:28.627Z,23.92
2017-09-07T03:33:09.085Z,23.94
2017-09-07T03:33:49.547Z,24
2017-09-07T03:35:42.239Z,23.92
2017-09-07T03:36:22.704Z,23.99
2017-09-07T03:37:03.159Z,23.94
2017-09-07T03:37:43.639Z,23.94
2017-09-07T03:38:24.065Z,23.91
2017-09-07T03:39:04.587Z,23.95
2017-09-07T03:39:45.038Z,23.95
2017-09-07T03:40:25.496Z,23.88
2017-09-07T03:41:05.947Z,23.99
2017-09-07T03:41:46.394Z,23.91
2017-09-07T03:42:26.897Z,23.91
2017-09-07T03:43:07.350Z,23.95
2017-09-07T03:43:47.814Z,23.96
2017-09-07T03:44:28.248Z,23.91
2017-09-07T03:45:08.705Z,23.92
2017-09-07T03:45:49.159Z,23.91
2017-09-07T03:46:29.610Z,23.95
2017-09-07T03:47:10.065Z,23.91
2017-09-07T03:47:50.521Z,23.91
2017-09-07T03:48:30.977Z,23.95
2017-09-07T03:49:11.434Z,23.91
2017-09-07T03:49:51.885Z,23.89
2017-09-07T03:50:32.346Z,23.92
2017-09-07T03:51:12.806Z,23.91
2017-09-07T03:51:53.258Z,23.92
2017-09-07T03:52:33.715Z,23.94
2017-09-07T03:53:14.173Z,23.88
2017-09-07T03:53:54.633Z,23.88
2017-09-07T03:54:35.090Z,23.88
2017-09-07T03:55:15.551Z,23.91
2017-09-07T03:55:56.003Z,23.92
2017-09-07T03:56:36.457Z,23.91
2017-09-07T03:57:16.910Z,23.96
2017-09-07T03:57:57.360Z,23.92
2017-09-07T03:58:37.814Z,23.92
2017-09-07T03:59:18.266Z,23.92
2017-09-07T03:59:58.716Z,23.92
2017-09-07T04:00:39.172Z,23.94
2017-09-07T04:01:19.635Z,23.95
2017-09-07T04:02:00.071Z,23.89
2017-09-07T04:02:40.538Z,23.85
2017-09-07T04:03:21.009Z,23.92
2017-09-07T04:04:01.467Z,23.95
2017-09-07T04:04:41.924Z,23.92
2017-09-07T04:05:22.383Z,23.84
2017-09-07T04:06:02.842Z,23.86
2017-09-07T04:06:43.294Z,23.82
2017-09-07T04:07:23.752Z,23.85
2017-09-07T04:08:04.200Z,23.81
2017-09-07T04:08:44.641Z,23.82
2017-09-07T04:09:25.077Z,23.81
2017-09-07T04:10:05.534Z,23.74
2017-09-07T04:10:45.998Z,23.79
2017-09-07T04:11:26.452Z,23.79
2017-09-07T04:12:06.919Z,23.77
2017-09-07T04:12:47.368Z,23.86
2017-09-07T04:13:27.916Z,23.76
2017-09-07T04:14:08.371Z,23.76
2017-09-07T04:14:48.803Z,23.73
2017-09-07T04:15:29.252Z,23.7
2017-09-07T04:16:09.703Z,23.84
2017-09-07T04:16:50.158Z,23.73
2017-09-07T04:17:30.621Z,23.77
2017-09-07T04:18:11.080Z,23.74
2017-09-07T04:18:51.533Z,23.76
2017-09-07T04:19:31.984Z,23.79
2017-09-07T04:20:12.438Z,23.71
2017-09-07T04:20:52.962Z,23.71
2017-09-07T04:21:33.448Z,23.82
2017-09-07T04:22:13.907Z,23.84
2017-09-07T04:22:54.365Z,23.79
2017-09-07T04:23:34.823Z,23.89
2017-09-07T04:24:15.274Z,23.79
2017-09-07T04:24:55.722Z,23.82
2017-09-07T04:25:36.178Z,23.76
2017-09-07T04:26:16.631Z,23.86
2017-09-07T04:26:57.092Z,23.82
2017-09-07T04:27:37.549Z,23.84
2017-09-07T04:28:18.010Z,23.81
2017-09-07T04:28:58.458Z,23.77
2017-09-07T04:29:38.910Z,23.82
2017-09-07T04:30:19.360Z,23.85
2017-09-07T04:30:59.832Z,23.81
2017-09-07T04:31:40.291Z,23.85
2017-09-07T04:32:20.754Z,23.82
2017-09-07T04:33:01.216Z,23.85
2017-09-07T04:33:41.666Z,23.84
2017-09-07T04:34:22.127Z,23.82
2017-09-07T04:35:02.592Z,23.85
2017-09-07T04:35:43.045Z,23.82
2017-09-07T04:36:23.502Z,23.92
2017-09-07T04:37:03.961Z,23.88
2017-09-07T04:37:44.411Z,23.91
2017-09-07T04:38:24.866Z,23.95
2017-09-07T04:39:05.317Z,23.88
2017-09-07T04:39:45.772Z,23.91
2017-09-07T04:40:26.385Z,23.91
2017-09-07T04:41:06.833Z,23.95
2017-09-07T04:41:47.295Z,23.94
2017-09-07T04:42:27.748Z,23.91
2017-09-07T04:43:08.210Z,23.91
2017-09-07T04:43:48.664Z,23.95
2017-09-07T04:44:29.132Z,23.91
2017-09-07T04:45:09.593Z,23.95
2017-09-07T04:45:50.046Z,23.92
2017-09-07T04:46:30.500Z,23.92
2017-09-07T04:47:10.958Z,23.89
2017-09-07T04:47:51.419Z,23.89
2017-09-07T04:48:31.874Z,23.94
2017-09-07T04:49:12.338Z,23.94
2017-09-07T04:50:49.772Z,23.86
2017-09-07T04:51:30.228Z,23.92
2017-09-07T04:52:10.693Z,23.94
2017-09-07T04:52:51.145Z,23.91
2017-09-07T04:53:31.597Z,23.94
2017-09-07T04:54:12.054Z,23.96
2017-09-07T04:54:52.517Z,23.89
2017-09-07T04:55:32.972Z,23.92
2017-09-07T04:56:13.423Z,23.92
2017-09-07T04:56:53.875Z,23.91
2017-09-07T04:58:46.523Z,23.86
2017-09-07T04:59:26.976Z,23.91
2017-09-07T05:00:07.434Z,23.91
2017-09-07T05:00:47.897Z,23.95
2017-09-07T05:01:28.404Z,23.81
2017-09-07T05:02:08.863Z,23.95
2017-09-07T05:02:49.311Z,23.91
2017-09-07T05:03:29.792Z,23.85
2017-09-07T05:04:10.244Z,23.95
2017-09-07T05:04:50.697Z,23.85
2017-09-07T05:05:31.152Z,23.89
2017-09-07T05:06:11.601Z,23.89
2017-09-07T05:06:52.056Z,23.86
2017-09-07T05:07:32.511Z,23.91
2017-09-07T05:08:12.963Z,23.91
2017-09-07T05:08:53.409Z,23.84
2017-09-07T05:09:33.861Z,23.92
2017-09-07T05:10:14.283Z,23.85
2017-09-07T05:10:54.738Z,23.88
2017-09-07T05:11:35.199Z,23.91
2017-09-07T05:12:15.650Z,23.89
2017-09-07T05:12:56.098Z,23.94
2017-09-07T05:13:36.554Z,23.91
2017-09-07T05:14:17.009Z,23.92
2017-09-07T05:14:57.449Z,23.94
2017-09-07T05:15:37.899Z,23.89
2017-09-07T05:16:18.458Z,23.91
2017-09-07T05:16:58.917Z,23.95
2017-09-07T05:17:39.365Z,23.94
2017-09-07T05:18:19.885Z,23.88
2017-09-07T05:19:00.341Z,23.92
2017-09-07T05:19:40.795Z,23.91
2017-09-07T05:20:21.253Z,23.94
2017-09-07T05:21:01.756Z,23.91
2017-09-07T05:21:42.212Z,23.89
2017-09-07T05:22:22.669Z,23.92
2017-09-07T05:23:03.108Z,23.94
2017-09-07T05:23:43.569Z,23.88
2017-09-07T05:24:24.021Z,23.89
2017-09-07T05:25:04.471Z,23.95
2017-09-07T05:25:44.915Z,23.94
2017-09-07T05:26:25.360Z,23.85
2017-09-07T05:27:05.813Z,23.89
2017-09-07T05:27:46.263Z,23.95
2017-09-07T05:28:26.755Z,23.92
2017-09-07T05:29:07.177Z,23.85
2017-09-07T05:29:47.622Z,23.92
2017-09-07T05:30:28.060Z,23.84
2017-09-07T05:31:08.530Z,23.88
2017-09-07T05:31:48.984Z,23.86
2017-09-07T05:32:29.441Z,23.94
2017-09-07T05:33:09.899Z,23.89
2017-09-07T05:33:50.354Z,23.84
2017-09-07T05:34:30.889Z,23.88
2017-09-07T05:35:11.351Z,23.94
2017-09-07T05:35:51.795Z,23.85
2017-09-07T05:36:32.240Z,23.95
2017-09-07T05:37:12.679Z,23.95
2017-09-07T05:37:53.132Z,23.85
2017-09-07T05:38:33.580Z,23.94
2017-09-07T05:39:14.038Z,23.91
2017-09-07T05:39:54.494Z,23.88
2017-09-07T05:40:34.945Z,23.85
2017-09-07T05:41:15.398Z,23.84
2017-09-07T05:41:55.857Z,23.85
2017-09-07T05:42:36.324Z,23.84
2017-09-07T05:43:16.774Z,23.88
2017-09-07T05:43:57.216Z,23.82
2017-09-07T05:44:37.674Z,23.86
2017-09-07T05:45:18.129Z,23.86
2017-09-07T05:45:58.585Z,23.82
2017-09-07T05:46:39.040Z,23.85
2017-09-07T05:47:19.489Z,23.91
2017-09-07T05:47:59.941Z,23.89
2017-09-07T05:48:40.392Z,23.88
2017-09-07T05:49:20.922Z,23.86
2017-09-07T05:50:01.386Z,23.86
2017-09-07T05:50:41.837Z,23.77
2017-09-07T05:51:22.297Z,23.85
2017-09-07T05:52:02.756Z,23.86
2017-09-07T05:52:43.200Z,23.79
2017-09-07T05:53:23.668Z,23.82
2017-09-07T05:54:04.121Z,23.84
2017-09-07T05:54:44.571Z,23.82
2017-09-07T05:55:25.026Z,23.86
2017-09-07T05:56:05.477Z,23.77
2017-09-07T05:56:45.934Z,23.82
2017-09-07T05:57:26.382Z,23.85
2017-09-07T05:58:06.832Z,23.81
2017-09-07T05:58:47.291Z,23.85
2017-09-07T05:59:27.734Z,23.86
2017-09-07T06:00:08.186Z,23.86
2017-09-07T06:00:48.645Z,23.84
2017-09-07T06:01:29.174Z,23.91
2017-09-07T06:02:09.611Z,23.82
2017-09-07T06:02:50.065Z,23.88
2017-09-07T06:03:30.559Z,23.94
2017-09-07T06:04:11.011Z,23.92
2017-09-07T06:04:51.470Z,23.89
2017-09-07T06:05:31.921Z,23.92
2017-09-07T06:06:12.379Z,23.89
2017-09-07T06:06:52.832Z,23.92
2017-09-07T06:07:33.282Z,23.89
2017-09-07T06:08:13.764Z,23.84
2017-09-07T06:08:54.193Z,23.84
2017-09-07T06:09:34.648Z,23.94
2017-09-07T06:10:15.103Z,23.95
2017-09-07T06:10:55.561Z,23.84
2017-09-07T06:11:36.006Z,23.89
2017-09-07T06:12:16.455Z,23.94
2017-09-07T06:12:56.905Z,23.92
2017-09-07T06:13:37.366Z,23.92
2017-09-07T06:14:17.821Z,23.91
2017-09-07T06:14:58.286Z,23.91
2017-09-07T06:15:38.744Z,23.89
2017-09-07T06:16:19.200Z,23.86
2017-09-07T06:16:59.658Z,23.95
2017-09-07T06:17:40.103Z,23.88
2017-09-07T06:18:20.652Z,23.91
2017-09-07T06:19:01.114Z,23.81
2017-09-07T06:19:41.559Z,23.86
2017-09-07T06:20:22.030Z,23.84
2017-09-07T06:21:02.485Z,23.94
2017-09-07T06:21:42.936Z,23.89
2017-09-07T06:22:23.391Z,23.82
2017-09-07T06:23:03.852Z,23.89
2017-09-07T06:23:44.307Z,23.91
2017-09-07T06:24:24.771Z,23.91
2017-09-07T06:25:05.224Z,23.89
2017-09-07T06:25:45.682Z,23.85
2017-09-07T06:26:26.128Z,23.94
2017-09-07T06:27:06.585Z,23.82
2017-09-07T06:27:47.037Z,23.91
2017-09-07T06:28:27.486Z,23.92
2017-09-07T06:29:07.967Z,23.88
2017-09-07T06:29:48.421Z,23.91
2017-09-07T06:30:28.924Z,23.94
2017-09-07T06:31:09.368Z,23.92
2017-09-07T06:31:49.840Z,23.79
2017-09-07T06:32:30.278Z,23.84
2017-09-07T06:33:10.735Z,23.95
2017-09-07T06:33:51.177Z,23.86
2017-09-07T06:34:31.618Z,23.91
2017-09-07T06:35:12.074Z,23.88
2017-09-07T06:35:52.523Z,23.88
2017-09-07T06:36:32.980Z,23.91
2017-09-07T06:37:13.429Z,23.86
2017-09-07T06:37:53.877Z,23.89
2017-09-07T06:38:34.329Z,23.95
2017-09-07T06:39:14.775Z,23.96
2017-09-07T06:39:55.235Z,23.92
2017-09-07T06:40:35.690Z,23.91
2017-09-07T06:41:16.175Z,23.89
2017-09-07T06:41:56.632Z,23.91
2017-09-07T06:42:37.099Z,23.92
2017-09-07T06:43:17.561Z,23.88
2017-09-07T06:43:58.012Z,23.91
2017-09-07T06:44:38.455Z,23.89
2017-09-07T06:45:18.909Z,23.89
2017-09-07T06:45:59.355Z,23.89
2017-09-07T06:46:39.805Z,23.89
2017-09-07T06:47:20.250Z,23.94
2017-09-07T06:48:00.697Z,23.92
2017-09-07T06:48:41.144Z,23.91
2017-09-07T06:49:21.596Z,23.92
2017-09-07T06:50:02.043Z,23.92
2017-09-07T06:50:42.494Z,23.91
2017-09-07T06:51:22.957Z,23.92
2017-09-07T06:52:03.519Z,23.92
2017-09-07T06:52:43.958Z,23.92
2017-09-07T06:53:24.425Z,23.94
2017-09-07T06:54:04.878Z,23.96
2017-09-07T06:54:45.333Z,23.95
2017-09-07T06:55:25.784Z,23.91
2017-09-07T06:56:06.232Z,23.95
2017-09-07T06:56:46.687Z,23.95
2017-09-07T06:57:27.142Z,23.89
2017-09-07T06:58:07.597Z,23.95
2017-09-07T06:58:48.051Z,23.96
2017-09-07T06:59:28.499Z,23.95
2017-09-07T07:00:08.952Z,23.92
2017-09-07T07:00:49.401Z,23.92
2017-09-07T07:01:29.856Z,23.95
2017-09-07T07:02:10.324Z,23.89
2017-09-07T07:02:50.782Z,23.96
2017-09-07T07:03:31.233Z,24
2017-09-07T07:04:11.686Z,23.88
2017-09-07T07:04:52.134Z,23.92
2017-09-07T07:05:32.591Z,23.99
2017-09-07T07:06:13.033Z,23.94
2017-09-07T07:06:53.478Z,23.95
2017-09-07T07:07:33.931Z,23.99
2017-09-07T07:08:14.400Z,23.99
2017-09-07T07:08:54.857Z,24.03
2017-09-07T07:09:35.319Z,24.07
2017-09-07T07:10:15.812Z,24.01
2017-09-07T07:10:56.272Z,24.04
2017-09-07T07:11:36.720Z,24.06
2017-09-07T07:12:17.192Z,24.07
2017-09-07T07:12:57.650Z,24.06
2017-09-07T07:13:38.110Z,24.09
2017-09-07T07:14:18.558Z,24.04
2017-09-07T07:14:59.006Z,24.07
2017-09-07T07:15:39.455Z,24.06
2017-09-07T07:16:19.916Z,24.03
2017-09-07T07:17:00.369Z,24.09
2017-09-07T07:17:40.819Z,24.1
2017-09-07T07:18:21.275Z,24.16
2017-09-07T07:19:01.730Z,24.09
2017-09-07T07:19:42.168Z,24.09
2017-09-07T07:20:22.619Z,24.09
2017-09-07T07:21:03.070Z,24.14
2017-09-07T07:21:43.524Z,24.09
2017-09-07T07:22:23.973Z,24.16
2017-09-07T07:23:04.423Z,24.19
2017-09-07T07:23:44.874Z,24.14
2017-09-07T07:25:42.719Z,24.13
2017-09-07T07:26:23.169Z,24.13
2017-09-07T07:27:03.623Z,24.16
2017-09-07T07:27:44.075Z,24.11
2017-09-07T07:28:24.529Z,24.18
2017-09-07T07:29:04.983Z,24.21
2017-09-07T07:29:45.444Z,24.14
2017-09-07T07:30:25.945Z,24.22
2017-09-07T07:31:06.388Z,24.13
2017-09-07T07:31:46.843Z,24.18
2017-09-07T07:32:27.297Z,24.25
2017-09-07T07:33:07.750Z,24.19
2017-09-07T07:33:48.236Z,24.21
2017-09-07T07:34:28.661Z,24.21
2017-09-07T07:35:09.122Z,24.21
2017-09-07T07:35:49.566Z,24.24
2017-09-07T07:36:30.021Z,24.22
2017-09-07T07:37:10.480Z,24.21
2017-09-07T07:37:50.930Z,24.14
2017-09-07T07:38:31.394Z,24.25
2017-09-07T07:39:11.857Z,24.26
2017-09-07T07:39:52.289Z,24.29
2017-09-07T07:40:32.759Z,24.21
2017-09-07T07:41:13.211Z,24.21
2017-09-07T07:41:53.661Z,24.22
2017-09-07T07:42:34.117Z,24.25
2017-09-07T07:43:14.573Z,24.26
2017-09-07T07:43:55.039Z,24.25
2017-09-07T07:44:35.496Z,24.29
2017-09-07T07:45:15.934Z,24.28
2017-09-07T07:45:56.389Z,24.29
2017-09-07T07:46:36.859Z,24.38
2017-09-07T07:47:17.310Z,24.32
2017-09-07T07:47:57.763Z,24.41
2017-09-07T07:48:38.221Z,24.34
2017-09-07T07:49:18.667Z,24.36
2017-09-07T07:49:59.122Z,24.31
2017-09-07T07:50:39.660Z,24.36
2017-09-07T07:51:20.111Z,24.36
2017-09-07T07:52:00.569Z,24.37
2017-09-07T07:52:41.030Z,24.32
2017-09-07T07:53:21.487Z,24.4
2017-09-07T07:54:01.944Z,24.4
2017-09-07T07:54:42.396Z,24.47
2017-09-07T07:55:22.846Z,24.44
2017-09-07T07:56:03.295Z,24.41
2017-09-07T07:56:43.752Z,24.46
2017-09-07T07:57:24.205Z,24.41
2017-09-07T07:58:04.664Z,24.43
2017-09-07T07:58:45.121Z,24.5
2017-09-07T07:59:25.577Z,24.46
2017-09-07T08:00:06.033Z,24.44
2017-09-07T08:00:46.485Z,24.47
2017-09-07T08:01:26.943Z,24.47
2017-09-07T08:02:07.395Z,24.5
2017-09-07T08:02:47.851Z,24.47
2017-09-07T08:03:28.304Z,24.58
2017-09-07T08:04:08.758Z,24.55
2017-09-07T08:04:49.211Z,24.47
2017-09-07T08:05:29.657Z,24.5
2017-09-07T08:06:10.114Z,24.56
2017-09-07T08:06:50.565Z,24.51
2017-09-07T08:07:31.022Z,24.55
2017-09-07T08:08:11.473Z,24.51
2017-09-07T08:08:51.930Z,24.59
2017-09-07T08:09:32.381Z,24.55
2017-09-07T08:10:12.834Z,24.46
2017-09-07T08:10:53.284Z,24.55
2017-09-07T08:11:33.746Z,24.46
2017-09-07T08:12:14.199Z,24.55
2017-09-07T08:12:54.648Z,24.58
2017-09-07T08:13:35.099Z,24.55
2017-09-07T08:14:15.555Z,24.58
2017-09-07T08:14:56.040Z,24.5
2017-09-07T08:15:36.507Z,24.48
2017-09-07T08:16:16.970Z,24.55
2017-09-07T08:16:57.421Z,24.5
2017-09-07T08:17:37.868Z,24.55
2017-09-07T08:18:18.313Z,24.51
2017-09-07T08:18:58.769Z,24.55
2017-09-07T08:19:39.305Z,24.59
2017-09-07T08:20:19.764Z,24.55
2017-09-07T08:21:00.235Z,24.56
2017-09-07T08:21:40.736Z,24.66
2017-09-07T08:22:21.197Z,24.58
2017-09-07T08:23:01.635Z,24.56
2017-09-07T08:23:42.130Z,24.62
2017-09-07T08:24:22.584Z,24.66
2017-09-07T08:25:03.042Z,24.66
2017-09-07T08:25:43.498Z,24.63
2017-09-07T08:26:23.952Z,24.63
2017-09-07T08:27:04.406Z,24.69
2017-09-07T08:27:44.850Z,24.69
2017-09-07T08:28:25.304Z,24.79
2017-09-07T08:29:05.759Z,24.69
2017-09-07T08:29:46.211Z,24.77
2017-09-07T08:30:26.671Z,24.79
2017-09-07T08:31:07.148Z,24.84
2017-09-07T08:31:47.576Z,24.75
2017-09-07T08:32:28.039Z,24.84
2017-09-07T08:33:08.495Z,24.82
2017-09-07T08:33:48.949Z,24.84
2017-09-07T08:34:29.378Z,24.92
2017-09-07T08:35:09.832Z,24.89
2017-09-07T08:35:50.284Z,24.86
2017-09-07T08:36:30.731Z,24.82
2017-09-07T08:37:11.192Z,24.88
2017-09-07T08:37:51.642Z,24.96
2017-09-07T08:38:32.083Z,24.99
2017-09-07T08:39:12.539Z,24.93
2017-09-07T08:39:52.998Z,25.04
2017-09-07T08:40:33.455Z,24.96
2017-09-07T08:41:13.912Z,24.97
2017-09-07T08:41:54.370Z,24.97
2017-09-07T08:42:34.829Z,25
2017-09-07T08:43:15.285Z,24.96
2017-09-07T08:43:55.746Z,24.96
2017-09-07T08:44:36.195Z,25
2017-09-07T08:45:16.652Z,25
2017-09-07T08:45:57.115Z,24.96
2017-09-07T08:46:37.574Z,25.04
2017-09-07T08:47:18.025Z,25.06
2017-09-07T08:47:58.475Z,25.12
2017-09-07T08:48:38.931Z,25.04
2017-09-07T08:49:19.388Z,25.01